createdAt,value
2018-03-07T00:01:44.917Z,6.35
2018-03-07T00:04:12.383Z,6.33
2018-03-07T00:06:39.767Z,6.30
2018-03-07T00:09:07.164Z,6.41
2018-03-07T00:11:34.611Z,6.53
2018-03-07T00:14:02.020Z,6.50
2018-03-07T00:16:29.467Z,6.47
2018-03-07T00:18:56.873Z,6.45
2018-03-07T00:21:24.480Z,6.29
2018-03-07T00:23:51.901Z,6.29
2018-03-07T00:26:19.320Z,6.38
2018-03-07T00:28:46.745Z,6.44
2018-03-07T00:31:14.159Z,6.43
2018-03-07T00:33:41.571Z,6.50
2018-03-07T00:36:09.020Z,6.60
2018-03-07T00:38:36.431Z,6.71
2018-03-07T00:41:03.845Z,6.66
2018-03-07T00:43:31.239Z,6.73
2018-03-07T00:45:58.645Z,6.76
2018-03-07T00:48:26.057Z,6.76
2018-03-07T00:50:53.483Z,6.65
2018-03-07T00:53:20.915Z,6.64
2018-03-07T00:55:48.493Z,6.64
2018-03-07T00:58:15.876Z,6.60
2018-03-07T01:00:43.259Z,6.56
2018-03-07T01:03:10.713Z,6.61
2018-03-07T01:05:38.158Z,6.64
2018-03-07T01:08:05.573Z,6.65
2018-03-07T01:10:33.017Z,6.73
2018-03-07T01:13:00.438Z,6.83
2018-03-07T01:15:27.819Z,6.83
2018-03-07T01:17:55.908Z,6.87
2018-03-07T01:20:23.290Z,6.94
2018-03-07T01:22:50.913Z,6.97
2018-03-07T01:25:18.346Z,6.98
2018-03-07T01:27:45.785Z,6.97
2018-03-07T01:30:13.261Z,7.00
2018-03-07T01:32:40.665Z,7.02
2018-03-07T01:37:40.885Z,7.09
2018-03-07T01:40:08.366Z,7.04
2018-03-07T01:42:35.761Z,7.06
2018-03-07T01:45:03.212Z,7.05
2018-03-07T01:47:30.599Z,7.06
2018-03-07T01:49:58.247Z,7.07
2018-03-07T01:52:25.858Z,7.11
2018-03-07T01:54:53.303Z,7.10
2018-03-07T01:57:20.708Z,7.08
2018-03-07T01:59:48.110Z,7.13
2018-03-07T02:02:15.544Z,7.13
2018-03-07T02:04:42.932Z,7.11
2018-03-07T02:07:10.374Z,7.06
2018-03-07T02:09:37.767Z,6.98
2018-03-07T02:12:05.147Z,6.98
2018-03-07T02:14:32.589Z,7.00
2018-03-07T02:16:59.969Z,7.04
2018-03-07T02:19:27.369Z,7.02
2018-03-07T02:21:55.022Z,7.06
2018-03-07T02:24:22.429Z,7.09
2018-03-07T02:26:49.852Z,7.12
2018-03-07T02:29:17.239Z,7.08
2018-03-07T02:31:44.638Z,7.11
2018-03-07T02:34:12.139Z,7.15
2018-03-07T02:36:39.551Z,7.15
2018-03-07T02:39:06.932Z,7.19
2018-03-07T02:41:34.319Z,7.19
2018-03-07T02:44:01.743Z,7.17
2018-03-07T02:46:29.177Z,7.16
2018-03-07T02:48:56.559Z,7.15
2018-03-07T02:51:23.952Z,7.20
2018-03-07T02:53:51.537Z,7.28
2018-03-07T02:56:18.950Z,7.27
2018-03-07T02:58:46.336Z,7.27
2018-03-07T03:01:13.750Z,7.25
2018-03-07T03:03:41.156Z,7.30
2018-03-07T03:06:09.281Z,7.35
2018-03-07T03:08:36.843Z,7.38
2018-03-07T03:11:04.280Z,7.40
2018-03-07T03:13:31.696Z,7.44
2018-03-07T03:15:59.116Z,7.43
2018-03-07T03:18:26.554Z,7.37
2018-03-07T03:20:53.980Z,7.40
2018-03-07T03:23:21.640Z,7.43
2018-03-07T03:25:49.032Z,7.46
2018-03-07T03:28:16.500Z,7.47
2018-03-07T03:30:43.938Z,7.46
2018-03-07T03:33:11.351Z,7.44
2018-03-07T03:35:38.756Z,7.43
2018-03-07T03:38:07.125Z,7.41
2018-03-07T03:40:35.745Z,7.38
2018-03-07T03:43:03.268Z,7.36
2018-03-07T03:45:31.285Z,7.34
2018-03-07T03:47:58.705Z,7.33
2018-03-07T03:50:26.120Z,7.32
2018-03-07T03:52:53.509Z,7.32
2018-03-07T03:55:21.111Z,7.31
2018-03-07T03:57:48.546Z,7.33
2018-03-07T04:00:15.963Z,7.31
2018-03-07T04:02:43.535Z,7.28
2018-03-07T04:05:10.940Z,7.19
2018-03-07T04:07:38.372Z,7.09
2018-03-07T04:10:05.752Z,7.05
2018-03-07T04:12:33.209Z,7.09
2018-03-07T04:15:00.624Z,7.17
2018-03-07T04:17:28.020Z,7.20
2018-03-07T04:19:55.448Z,7.26
2018-03-07T04:22:22.833Z,7.34
2018-03-07T04:24:50.537Z,7.38
2018-03-07T04:27:17.937Z,7.41
2018-03-07T04:29:45.352Z,7.43
2018-03-07T04:32:12.768Z,7.43
2018-03-07T04:34:40.204Z,7.38
2018-03-07T04:37:07.584Z,7.36
2018-03-07T04:39:35.024Z,7.35
2018-03-07T04:42:02.427Z,7.33
2018-03-07T04:44:29.838Z,7.32
2018-03-07T04:46:57.227Z,7.32
2018-03-07T04:49:24.765Z,7.27
2018-03-07T04:51:52.189Z,7.23
2018-03-07T04:54:19.621Z,7.24
2018-03-07T04:56:47.029Z,7.24
2018-03-07T04:59:14.424Z,7.23
2018-03-07T05:01:41.811Z,7.26
2018-03-07T05:04:09.269Z,7.27
2018-03-07T05:06:36.731Z,7.27
2018-03-07T05:09:04.153Z,7.25
2018-03-07T05:11:31.555Z,7.22
2018-03-07T05:13:59.200Z,7.29
2018-03-07T05:16:26.571Z,7.32
2018-03-07T05:18:54.031Z,7.34
2018-03-07T05:21:21.464Z,7.33
2018-03-07T05:23:49.122Z,7.31
2018-03-07T05:26:16.553Z,7.23
2018-03-07T05:28:43.940Z,7.19
2018-03-07T05:31:11.385Z,7.17
2018-03-07T05:33:38.826Z,7.14
2018-03-07T05:36:06.205Z,7.10
2018-03-07T05:38:33.610Z,7.07
2018-03-07T05:41:01.012Z,7.13
2018-03-07T05:43:28.470Z,7.15
2018-03-07T05:45:55.901Z,7.18
2018-03-07T05:48:23.376Z,7.18
2018-03-07T05:50:50.837Z,7.21
2018-03-07T05:53:18.268Z,7.22
2018-03-07T05:55:45.869Z,7.27
2018-03-07T05:58:13.311Z,7.29
2018-03-07T06:00:40.693Z,7.30
2018-03-07T06:03:08.140Z,7.28
2018-03-07T06:05:35.565Z,7.25
2018-03-07T06:08:03.005Z,7.30
2018-03-07T06:10:30.436Z,7.26
2018-03-07T06:12:57.963Z,7.25
2018-03-07T06:15:25.555Z,7.34
2018-03-07T06:17:53.000Z,7.42
2018-03-07T06:20:20.435Z,7.46
2018-03-07T06:22:47.838Z,7.37
2018-03-07T06:25:15.450Z,7.26
2018-03-07T06:27:42.985Z,7.15
2018-03-07T06:30:10.400Z,7.12
2018-03-07T06:32:37.796Z,7.08
2018-03-07T06:35:05.193Z,7.05
2018-03-07T06:37:32.589Z,7.08
2018-03-07T06:40:00.062Z,6.98
2018-03-07T06:42:27.461Z,6.98
2018-03-07T06:44:54.915Z,7.03
2018-03-07T06:47:22.350Z,6.97
2018-03-07T06:49:49.778Z,6.99
2018-03-07T06:52:17.252Z,7.05
2018-03-07T06:54:44.682Z,7.13
2018-03-07T06:57:12.472Z,7.23
2018-03-07T06:59:41.001Z,7.26
2018-03-07T07:02:08.414Z,7.32
2018-03-07T07:04:35.861Z,7.34
2018-03-07T07:07:03.243Z,7.40
2018-03-07T07:09:30.659Z,7.46
2018-03-07T07:11:58.079Z,7.56
2018-03-07T07:14:25.584Z,7.58
2018-03-07T07:16:53.143Z,7.60
2018-03-07T07:19:21.408Z,7.68
2018-03-07T07:21:48.813Z,7.69
2018-03-07T07:24:16.221Z,7.67
2018-03-07T07:26:43.631Z,7.70
2018-03-07T07:29:11.028Z,7.79
2018-03-07T07:31:38.523Z,7.90
2018-03-07T07:34:06.198Z,7.98
2018-03-07T07:36:33.612Z,7.99
2018-03-07T07:39:01.068Z,8.08
2018-03-07T07:41:28.520Z,8.11
2018-03-07T07:43:56.139Z,8.04
2018-03-07T07:46:23.575Z,8.03
2018-03-07T07:48:51.538Z,8.08
2018-03-07T07:51:18.997Z,8.15
2018-03-07T07:53:46.499Z,8.19
2018-03-07T07:56:13.938Z,8.21
2018-03-07T07:58:41.357Z,8.25
2018-03-07T08:01:09.310Z,8.36
2018-03-07T08:03:36.719Z,8.46
2018-03-07T08:06:04.108Z,8.50
2018-03-07T08:08:31.558Z,8.61
2018-03-07T08:10:58.991Z,8.76
2018-03-07T08:13:26.405Z,8.83
2018-03-07T08:15:53.796Z,8.91
2018-03-07T08:18:21.230Z,8.95
2018-03-07T08:20:48.617Z,8.94
2018-03-07T08:23:16.496Z,8.95
2018-03-07T08:25:43.925Z,8.97
2018-03-07T08:28:11.337Z,9.02
2018-03-07T08:30:38.915Z,9.15
2018-03-07T08:33:06.312Z,9.21
2018-03-07T08:35:33.768Z,9.24
2018-03-07T08:38:02.034Z,9.22
2018-03-07T08:40:29.490Z,9.29
2018-03-07T08:42:56.942Z,9.40
2018-03-07T08:45:25.766Z,9.53
2018-03-07T08:47:53.309Z,9.58
2018-03-07T08:50:20.760Z,9.51
2018-03-07T08:52:48.171Z,9.54
2018-03-07T08:55:15.638Z,9.63
2018-03-07T08:57:43.117Z,9.51
2018-03-07T09:00:10.560Z,9.30
2018-03-07T09:02:37.962Z,9.16
2018-03-07T09:05:05.366Z,9.16
2018-03-07T09:07:32.817Z,9.15
2018-03-07T09:10:00.207Z,9.02
2018-03-07T09:12:27.713Z,8.96
2018-03-07T09:14:55.181Z,8.94
2018-03-07T09:17:22.617Z,8.86
2018-03-07T09:19:50.104Z,8.69
2018-03-07T09:22:17.551Z,8.67
2018-03-07T09:24:45.282Z,8.78
2018-03-07T09:27:12.758Z,8.91
2018-03-07T09:29:40.197Z,8.97
2018-03-07T09:32:07.642Z,8.95
2018-03-07T09:34:35.190Z,9.06
2018-03-07T09:37:02.761Z,9.18
2018-03-07T09:39:30.183Z,9.23
2018-03-07T09:41:57.586Z,9.28
2018-03-07T09:44:25.001Z,9.22
2018-03-07T09:46:52.407Z,9.42
2018-03-07T09:49:19.853Z,9.90
2018-03-07T09:51:47.472Z,11.32
2018-03-07T09:54:14.868Z,11.29
2018-03-07T09:56:42.282Z,11.17
2018-03-07T09:59:09.679Z,11.76
2018-03-07T10:01:37.116Z,12.54
2018-03-07T10:04:04.588Z,11.89
2018-03-07T10:06:32.040Z,12.29
2018-03-07T10:08:59.488Z,12.64
2018-03-07T10:11:26.923Z,12.93
2018-03-07T10:13:54.312Z,13.16
2018-03-07T10:16:21.778Z,13.28
2018-03-07T10:18:49.195Z,13.03
2018-03-07T10:21:16.812Z,12.58
2018-03-07T10:23:44.663Z,12.14
2018-03-07T10:26:12.280Z,12.11
2018-03-07T10:28:39.761Z,11.76
2018-03-07T10:31:07.152Z,11.47
2018-03-07T10:33:34.573Z,11.61
2018-03-07T10:36:02.031Z,11.72
2018-03-07T10:38:29.622Z,11.56
2018-03-07T10:40:57.016Z,11.22
2018-03-07T10:43:24.465Z,11.34
2018-03-07T10:45:51.861Z,11.57
2018-03-07T10:48:19.329Z,11.69
2018-03-07T10:50:46.783Z,11.66
2018-03-07T10:53:14.346Z,12.23
2018-03-07T10:55:41.803Z,13.37
2018-03-07T10:58:09.215Z,13.53
2018-03-07T11:00:38.260Z,12.74
2018-03-07T11:03:05.647Z,12.19
2018-03-07T11:05:33.119Z,11.74
2018-03-07T11:08:00.554Z,11.58
2018-03-07T11:10:27.993Z,11.60
2018-03-07T11:12:55.463Z,11.71
2018-03-07T11:15:22.863Z,12.05
2018-03-07T11:17:50.346Z,12.42
2018-03-07T11:20:17.983Z,12.72
2018-03-07T11:22:45.366Z,12.76
2018-03-07T11:25:12.816Z,12.90
2018-03-07T11:27:40.207Z,12.48
2018-03-07T11:30:07.619Z,12.24
2018-03-07T11:32:35.051Z,12.35
2018-03-07T11:35:02.482Z,13.40
2018-03-07T11:37:29.941Z,14.17
2018-03-07T11:39:57.371Z,14.87
2018-03-07T11:42:24.837Z,15.30
2018-03-07T11:44:52.289Z,15.66
2018-03-07T11:47:19.858Z,15.57
2018-03-07T11:49:47.263Z,14.94
2018-03-07T11:52:14.662Z,14.92
2018-03-07T11:54:42.082Z,15.38
2018-03-07T11:57:09.528Z,15.52
2018-03-07T11:59:37.062Z,15.68
2018-03-07T12:02:04.482Z,15.76
2018-03-07T12:04:35.023Z,15.62
2018-03-07T12:07:02.468Z,16.11
2018-03-07T12:09:29.919Z,16.81
2018-03-07T12:11:57.327Z,17.11
2018-03-07T12:14:24.787Z,17.04
2018-03-07T12:16:52.202Z,16.40
2018-03-07T12:19:19.756Z,15.70
2018-03-07T12:21:47.216Z,15.68
2018-03-07T12:24:14.796Z,16.26
2018-03-07T12:26:42.560Z,16.60
2018-03-07T12:29:09.990Z,16.73
2018-03-07T12:31:37.425Z,16.59
2018-03-07T12:34:04.866Z,16.55
2018-03-07T12:36:32.294Z,16.88
2018-03-07T12:38:59.730Z,16.48
2018-03-07T12:41:27.132Z,15.65
2018-03-07T12:43:54.576Z,14.86
2018-03-07T12:46:22.054Z,14.71
2018-03-07T12:48:49.559Z,14.58
2018-03-07T12:51:17.003Z,14.41
2018-03-07T12:53:44.420Z,14.37
2018-03-07T12:56:11.950Z,13.86
2018-03-07T12:58:39.353Z,13.74
2018-03-07T13:01:06.860Z,14.32
2018-03-07T13:03:34.261Z,15.10
2018-03-07T13:06:01.779Z,15.94
2018-03-07T13:08:29.226Z,15.43
2018-03-07T13:10:57.207Z,15.58
2018-03-07T13:13:24.645Z,15.95
2018-03-07T13:15:52.199Z,14.95
2018-03-07T13:18:19.614Z,14.00
2018-03-07T13:20:48.226Z,13.40
2018-03-07T13:23:15.759Z,12.67
2018-03-07T13:25:43.202Z,12.37
2018-03-07T13:28:10.629Z,12.33
2018-03-07T13:30:38.028Z,13.34
2018-03-07T13:33:05.467Z,14.27
2018-03-07T13:35:32.950Z,15.29
2018-03-07T13:38:00.394Z,15.13
2018-03-07T13:40:27.956Z,15.36
2018-03-07T13:42:55.411Z,15.15
2018-03-07T13:45:22.845Z,14.04
2018-03-07T13:47:50.230Z,13.57
2018-03-07T13:50:17.682Z,13.31
2018-03-07T13:52:45.081Z,13.02
2018-03-07T13:55:12.526Z,12.76
2018-03-07T13:57:40.064Z,12.40
2018-03-07T14:00:07.460Z,11.91
2018-03-07T14:02:35.008Z,11.51
2018-03-07T14:05:02.412Z,10.89
2018-03-07T14:07:29.821Z,10.33
2018-03-07T14:09:57.243Z,10.07
2018-03-07T14:12:24.682Z,10.16
2018-03-07T14:14:52.103Z,10.39
2018-03-07T14:17:19.548Z,10.45
2018-03-07T14:19:46.987Z,10.71
2018-03-07T14:22:14.407Z,10.94
2018-03-07T14:24:41.992Z,11.15
2018-03-07T14:27:09.872Z,11.14
2018-03-07T14:29:37.307Z,11.02
2018-03-07T14:32:04.712Z,11.25
2018-03-07T14:34:32.174Z,12.01
2018-03-07T14:36:59.624Z,12.29
2018-03-07T14:39:27.093Z,11.90
2018-03-07T14:41:54.625Z,11.18
2018-03-07T14:44:22.036Z,11.05
2018-03-07T14:46:49.604Z,11.80
2018-03-07T14:49:17.190Z,12.47
2018-03-07T14:51:44.663Z,11.87
2018-03-07T14:54:12.195Z,11.44
2018-03-07T14:56:39.745Z,11.25
2018-03-07T14:59:07.174Z,11.33
2018-03-07T15:01:35.000Z,11.53
2018-03-07T15:04:02.399Z,11.73
2018-03-07T15:06:29.922Z,11.68
2018-03-07T15:08:57.389Z,11.65
2018-03-07T15:11:24.796Z,12.23
2018-03-07T15:13:52.217Z,12.54
2018-03-07T15:16:19.608Z,13.22
2018-03-07T15:18:47.093Z,12.99
2018-03-07T15:21:14.564Z,12.61
2018-03-07T15:23:42.334Z,12.62
2018-03-07T15:26:09.841Z,12.84
2018-03-07T15:28:37.338Z,12.85
2018-03-07T15:31:04.771Z,12.58
2018-03-07T15:33:32.241Z,12.33
2018-03-07T15:35:59.641Z,12.02
2018-03-07T15:38:27.075Z,12.05
2018-03-07T15:40:54.514Z,11.85
2018-03-07T15:43:21.963Z,12.08
2018-03-07T15:45:49.552Z,12.26
2018-03-07T15:48:16.996Z,12.20
2018-03-07T15:50:44.701Z,12.45
2018-03-07T15:53:12.115Z,13.29
2018-03-07T15:55:39.560Z,13.57
2018-03-07T15:58:07.247Z,13.22
2018-03-07T16:00:34.642Z,15.03
2018-03-07T16:03:02.069Z,15.51
2018-03-07T16:05:29.613Z,15.14
2018-03-07T16:07:57.037Z,13.23
2018-03-07T16:10:24.467Z,12.12
2018-03-07T16:12:51.887Z,11.70
2018-03-07T16:15:19.331Z,11.48
2018-03-07T16:17:46.936Z,11.19
2018-03-07T16:20:14.356Z,10.99
2018-03-07T16:22:41.777Z,10.88
2018-03-07T16:25:09.327Z,10.75
2018-03-07T16:27:36.745Z,10.67
2018-03-07T16:30:04.182Z,10.61
2018-03-07T16:32:31.608Z,10.55
2018-03-07T16:34:59.316Z,10.45
2018-03-07T16:37:26.774Z,10.41
2018-03-07T16:39:54.317Z,10.38
2018-03-07T16:42:21.808Z,10.36
2018-03-07T16:44:49.221Z,10.15
2018-03-07T16:47:16.651Z,9.91
2018-03-07T16:49:44.084Z,9.83
2018-03-07T16:52:11.497Z,9.44
2018-03-07T16:54:39.323Z,9.03
2018-03-07T16:57:06.749Z,8.51
2018-03-07T16:59:34.180Z,8.02
2018-03-07T17:02:01.602Z,7.59
2018-03-07T17:04:29.101Z,7.39
2018-03-07T17:06:56.581Z,7.34
2018-03-07T17:09:24.032Z,7.45
2018-03-07T17:11:51.435Z,7.45
2018-03-07T17:14:18.886Z,7.40
2018-03-07T17:16:46.383Z,7.34
2018-03-07T17:19:14.050Z,7.41
2018-03-07T17:21:41.516Z,7.39
2018-03-07T17:24:08.978Z,7.36
2018-03-07T17:26:36.775Z,7.36
2018-03-07T17:29:04.273Z,7.33
2018-03-07T17:31:31.749Z,7.37
2018-03-07T17:33:59.249Z,7.29
2018-03-07T17:36:26.658Z,7.34
2018-03-07T17:38:54.054Z,7.40
2018-03-07T17:41:21.507Z,7.48
2018-03-07T17:43:48.949Z,7.45
2018-03-07T17:46:16.351Z,7.35
2018-03-07T17:48:43.784Z,7.19
2018-03-07T17:51:11.443Z,7.20
2018-03-07T17:53:38.902Z,7.05
2018-03-07T17:56:06.641Z,7.03
2018-03-07T17:58:34.128Z,7.04
2018-03-07T18:01:01.576Z,7.06
2018-03-07T18:03:29.012Z,7.15
2018-03-07T18:05:56.470Z,7.18
2018-03-07T18:08:23.933Z,7.23
2018-03-07T18:10:51.345Z,7.25
2018-03-07T18:13:18.839Z,7.31
2018-03-07T18:15:46.230Z,7.39
2018-03-07T18:18:13.654Z,7.39
2018-03-07T18:20:41.386Z,7.48
2018-03-07T18:23:08.854Z,7.53
2018-03-07T18:25:36.364Z,7.56
2018-03-07T18:28:04.038Z,7.65
2018-03-07T18:30:32.276Z,7.71
2018-03-07T18:32:59.691Z,7.73
2018-03-07T18:35:27.147Z,7.78
2018-03-07T18:37:54.783Z,7.75
2018-03-07T18:40:22.265Z,7.77
2018-03-07T18:42:49.709Z,7.83
2018-03-07T18:45:17.184Z,7.89
2018-03-07T18:47:44.601Z,7.94
2018-03-07T18:50:11.995Z,7.87
2018-03-07T18:52:39.447Z,7.85
2018-03-07T18:57:40.883Z,7.75
2018-03-07T19:00:08.351Z,7.77
2018-03-07T19:02:36.166Z,7.69
2018-03-07T19:05:04.842Z,7.68
2018-03-07T19:07:32.331Z,7.59
2018-03-07T19:09:59.788Z,7.52
2018-03-07T19:12:27.650Z,7.50
2018-03-07T19:14:55.138Z,7.60
2018-03-07T19:17:22.597Z,7.60
2018-03-07T19:19:50.020Z,7.65
2018-03-07T19:22:17.614Z,7.65
2018-03-07T19:24:45.987Z,7.59
2018-03-07T19:27:13.401Z,7.48
2018-03-07T19:29:40.841Z,7.43
2018-03-07T19:32:08.286Z,7.44
2018-03-07T19:34:35.715Z,7.34
2018-03-07T19:37:03.159Z,7.29
2018-03-07T19:39:30.656Z,7.26
2018-03-07T19:41:58.064Z,7.19
2018-03-07T19:44:25.598Z,7.08
2018-03-07T19:46:53.070Z,7.08
2018-03-07T19:49:20.452Z,7.05
2018-03-07T19:51:47.904Z,7.09
2018-03-07T19:54:15.315Z,7.14
2018-03-07T19:56:42.759Z,7.16
2018-03-07T19:59:10.345Z,7.18
2018-03-07T20:01:38.312Z,7.14
2018-03-07T20:04:05.707Z,7.04
2018-03-07T20:06:33.145Z,7.00
2018-03-07T20:09:00.532Z,7.04
2018-03-07T20:11:27.980Z,7.08
2018-03-07T20:13:55.461Z,7.14
2018-03-07T20:16:22.901Z,7.18
2018-03-07T20:18:50.347Z,7.21
2018-03-07T20:21:17.789Z,7.23
2018-03-07T20:23:45.190Z,7.23
2018-03-07T20:26:12.898Z,7.31
2018-03-07T20:28:40.340Z,7.30
2018-03-07T20:31:07.789Z,7.27
2018-03-07T20:33:35.179Z,7.29
2018-03-07T20:36:02.644Z,7.38
2018-03-07T20:38:30.083Z,7.44
2018-03-07T20:40:57.540Z,7.56
2018-03-07T20:43:24.928Z,7.62
2018-03-07T20:45:52.369Z,7.68
2018-03-07T20:48:19.934Z,7.77
2018-03-07T20:50:47.358Z,7.80
2018-03-07T20:53:14.792Z,7.84
2018-03-07T20:55:42.340Z,7.80
2018-03-07T20:58:09.839Z,7.79
2018-03-07T21:00:37.321Z,7.80
2018-03-07T21:03:04.755Z,7.79
2018-03-07T21:05:32.189Z,7.83
2018-03-07T21:07:59.598Z,7.87
2018-03-07T21:10:27.033Z,7.87
2018-03-07T21:12:54.432Z,7.85
2018-03-07T21:15:21.854Z,7.79
2018-03-07T21:17:49.286Z,7.76
2018-03-07T21:20:16.735Z,7.79
2018-03-07T21:22:44.173Z,7.80
2018-03-07T21:25:11.750Z,7.77
2018-03-07T21:27:39.215Z,7.78
2018-03-07T21:30:06.656Z,7.76
2018-03-07T21:32:34.077Z,7.71
2018-03-07T21:35:01.998Z,7.67
2018-03-07T21:37:29.469Z,7.65
2018-03-07T21:43:00.043Z,7.73
2018-03-07T21:45:27.494Z,7.81
2018-03-07T21:47:54.875Z,7.83
2018-03-07T21:50:22.322Z,7.83
2018-03-07T21:55:23.476Z,7.79
2018-03-07T21:57:51.096Z,7.75
2018-03-07T22:00:18.492Z,7.69
2018-03-07T22:02:45.911Z,7.59
2018-03-07T22:05:13.304Z,7.54
2018-03-07T22:07:40.703Z,7.52
2018-03-07T22:10:08.164Z,7.46
2018-03-07T22:12:35.547Z,7.53
2018-03-07T22:15:02.984Z,7.50
2018-03-07T22:17:30.605Z,7.54
2018-03-07T22:19:57.996Z,7.57
2018-03-07T22:22:25.452Z,7.64
2018-03-07T22:24:52.943Z,7.72
2018-03-07T22:27:20.340Z,7.75
2018-03-07T22:29:47.802Z,7.77
2018-03-07T22:32:15.356Z,7.75
2018-03-07T22:34:42.753Z,7.76
2018-03-07T22:37:10.153Z,7.75
2018-03-07T22:39:37.578Z,7.70
2018-03-07T22:42:04.980Z,7.51
2018-03-07T22:44:32.416Z,7.41
2018-03-07T22:46:59.896Z,7.41
2018-03-07T22:49:27.387Z,7.40
2018-03-07T22:51:54.810Z,7.31
2018-03-07T22:54:23.020Z,7.27
2018-03-07T22:56:51.211Z,7.13
2018-03-07T22:59:18.650Z,7.11
2018-03-07T23:01:46.154Z,7.08
2018-03-07T23:04:13.608Z,7.06
2018-03-07T23:06:40.995Z,6.96
2018-03-07T23:09:08.873Z,6.83
2018-03-07T23:11:36.272Z,6.76
2018-03-07T23:14:04.107Z,6.69
2018-03-07T23:16:31.569Z,6.71
2018-03-07T23:18:59.740Z,6.75
2018-03-07T23:21:27.125Z,6.73
2018-03-07T23:23:54.522Z,6.73
2018-03-07T23:26:21.985Z,6.71
2018-03-07T23:28:49.481Z,6.67
2018-03-07T23:31:16.908Z,6.66
2018-03-07T23:33:44.314Z,6.72
2018-03-07T23:36:11.712Z,6.76
2018-03-07T23:38:39.150Z,6.78
2018-03-07T23:41:06.570Z,6.76
2018-03-07T23:43:34.069Z,6.73
2018-03-07T23:46:01.577Z,6.75
2018-03-07T23:48:28.980Z,6.78
2018-03-07T23:50:56.461Z,6.84
2018-03-07T23:53:23.877Z,6.80
2018-03-07T23:55:51.807Z,6.83
2018-03-07T23:58:19.279Z,6.81
